Time;durP1;ratioP1;P1;durP2;ratioP2;P2;SDS_P1;SDS_P2;PMS_P1;PMS_P2;Temp;Humidity;BMP_temperature;BMP_pressure;BME280_temperature;BME280_humidity;BME280_pressure;Samples;Min_cycle;Max_cycle;Signal;HPM_P1;HPM_P2
2021/07/07 00:00:51;;;;;;;12.25;4.53;;;13.60;99.90;;;;;;4856097;29;20065;-80
2021/07/07 00:03:19;;;;;;;8.40;3.93;;;13.60;99.90;;;;;;4854084;29;20064;-81
2021/07/07 00:05:47;;;;;;;13.02;4.70;;;13.60;99.90;;;;;;4869909;29;20050;-79
2021/07/07 00:08:15;;;;;;;15.48;6.97;;;13.60;99.90;;;;;;4839607;29;20055;-80
2021/07/07 00:10:52;;;;;;;16.92;4.18;;;13.60;99.90;;;;;;4854479;29;20073;-81
2021/07/07 00:13:21;;;;;;;25.70;5.15;;;13.60;99.90;;;;;;4863131;29;20057;-81
2021/07/07 00:15:49;;;;;;;24.23;4.75;;;13.60;99.90;;;;;;4854507;29;20058;-80
2021/07/07 00:18:18;;;;;;;13.15;5.53;;;13.60;99.90;;;;;;4853750;29;20239;-80
2021/07/07 00:20:56;;;;;;;10.50;4.30;;;13.60;99.90;;;;;;4840284;29;20412;-79
2021/07/07 00:23:26;;;;;;;36.78;5.80;;;13.60;99.90;;;;;;4869453;29;20531;-81
2021/07/07 00:25:55;;;;;;;25.92;5.55;;;13.70;99.90;;;;;;4853964;29;20045;-80
2021/07/07 00:28:24;;;;;;;14.52;4.70;;;13.70;99.90;;;;;;4869164;29;20068;-80
2021/07/07 00:30:56;;;;;;;10.63;4.07;;;13.70;99.90;;;;;;4870228;29;20045;-81
2021/07/07 00:33:24;;;;;;;9.95;4.53;;;13.70;99.90;;;;;;4868531;29;20053;-80
2021/07/07 00:35:52;;;;;;;19.20;4.43;;;13.60;99.90;;;;;;4850266;29;20041;-79
2021/07/07 00:38:20;;;;;;;16.55;4.75;;;13.60;99.90;;;;;;4865627;29;20074;-80
2021/07/07 00:40:48;;;;;;;22.00;6.68;;;13.60;99.90;;;;;;4836205;29;20058;-80
2021/07/07 00:43:18;;;;;;;19.48;5.13;;;13.70;99.90;;;;;;4854437;29;20068;-80
2021/07/07 00:45:47;;;;;;;17.90;5.28;;;13.70;99.90;;;;;;4866983;29;20046;-81
2021/07/07 00:48:15;;;;;;;12.25;5.18;;;13.60;99.90;;;;;;4865749;29;20073;-80
2021/07/07 00:50:44;;;;;;;25.15;5.00;;;13.70;99.90;;;;;;4868795;29;20053;-81
2021/07/07 00:53:13;;;;;;;15.85;4.22;;;13.60;99.90;;;;;;4870442;29;20053;-81
2021/07/07 00:55:41;;;;;;;17.70;5.50;;;13.60;99.90;;;;;;4867540;29;20065;-80
2021/07/07 00:58:13;;;;;;;16.15;4.10;;;13.60;99.90;;;;;;4854527;29;20058;-80
2021/07/07 01:00:41;;;;;;;21.60;6.00;;;13.60;99.90;;;;;;4854844;29;20045;-80
2021/07/07 01:03:09;;;;;;;20.42;8.10;;;13.60;99.90;;;;;;4824424;29;20066;-81
2021/07/07 01:05:37;;;;;;;21.05;5.63;;;13.60;99.90;;;;;;4855043;29;20072;-81
2021/07/07 01:08:05;;;;;;;9.75;4.20;;;13.60;99.90;;;;;;4837452;29;20050;-82
2021/07/07 01:10:34;;;;;;;11.10;4.72;;;13.60;99.90;;;;;;4855480;29;20058;-82
2021/07/07 01:13:02;;;;;;;16.08;5.43;;;13.60;99.90;;;;;;4859783;29;20068;-81
2021/07/07 01:15:41;;;;;;;22.58;6.35;;;13.60;99.90;;;;;;4872473;29;20054;-82
2021/07/07 01:18:14;;;;;;;21.60;6.10;;;13.70;99.90;;;;;;4859672;29;20062;-81
2021/07/07 01:20:42;;;;;;;19.63;4.82;;;13.60;99.90;;;;;;4856621;29;20054;-80
2021/07/07 01:23:10;;;;;;;25.88;6.43;;;13.60;99.90;;;;;;4839119;29;20598;-81
2021/07/07 01:25:39;;;;;;;24.95;7.00;;;13.60;99.90;;;;;;4852089;29;20080;-80
2021/07/07 01:28:08;;;;;;;19.90;5.82;;;13.60;99.90;;;;;;4853123;29;20054;-81
2021/07/07 01:30:36;;;;;;;13.20;5.80;;;13.60;99.90;;;;;;4853706;29;20062;-80
2021/07/07 01:33:04;;;;;;;16.40;4.93;;;13.60;99.90;;;;;;4871946;29;20050;-80
2021/07/07 01:35:32;;;;;;;14.90;5.40;;;13.60;99.90;;;;;;4857297;29;20061;-80
2021/07/07 01:38:00;;;;;;;25.83;8.70;;;13.60;99.90;;;;;;4871816;29;20065;-81
2021/07/07 01:40:32;;;;;;;15.80;5.25;;;13.70;99.90;;;;;;4873495;29;20078;-81
2021/07/07 01:43:00;;;;;;;23.90;7.07;;;13.60;99.90;;;;;;4853533;29;20065;-79
2021/07/07 01:45:28;;;;;;;19.80;5.78;;;13.70;99.90;;;;;;4872028;29;20500;-81
2021/07/07 01:47:56;;;;;;;18.52;5.07;;;13.70;99.90;;;;;;4858343;29;20050;-81
2021/07/07 01:50:25;;;;;;;20.05;5.70;;;13.70;99.90;;;;;;4855565;29;20065;-81
2021/07/07 01:52:56;;;;;;;12.13;4.53;;;13.70;99.90;;;;;;4868907;29;20059;-81
2021/07/07 01:55:27;;;;;;;25.15;6.72;;;13.80;99.90;;;;;;4874807;29;20053;-80
2021/07/07 01:57:56;;;;;;;17.98;5.50;;;13.80;99.90;;;;;;4839700;29;20056;-81
2021/07/07 02:00:27;;;;;;;16.38;5.63;;;13.80;99.90;;;;;;4855003;29;20104;-79
2021/07/07 02:02:56;;;;;;;;;;;13.80;99.90;;;;;;4868608;29;20053;-80
2021/07/07 02:05:28;;;;;;;17.95;5.53;;;13.40;99.90;;;;;;4854402;29;19928;-81
2021/07/07 02:07:58;;;;;;;11.13;5.03;;;13.90;99.90;;;;;;4854412;29;20050;-81
2021/07/07 02:10:27;;;;;;;22.48;7.40;;;13.90;99.90;;;;;;4849783;29;20056;-81
2021/07/07 02:12:55;;;;;;;15.10;5.25;;;13.40;99.90;;;;;;4855777;29;20088;-81
2021/07/07 02:15:28;;;;;;;18.08;5.85;;;13.90;99.90;;;;;;4843045;29;20062;-81
2021/07/07 02:17:58;;;;;;;9.95;5.70;;;14.00;99.90;;;;;;4854986;29;20054;-81
2021/07/07 02:20:28;;;;;;;17.13;6.38;;;14.00;99.90;;;;;;4873530;29;20062;-81
2021/07/07 02:22:57;;;;;;;21.07;8.13;;;14.00;99.90;;;;;;4860395;29;20054;-79
2021/07/07 02:25:28;;;;;;;31.20;9.20;;;14.00;99.90;;;;;;4855780;29;20095;-81
2021/07/07 02:27:58;;;;;;;20.20;5.90;;;14.00;99.90;;;;;;4869704;29;20052;-81
2021/07/07 02:30:28;;;;;;;21.23;6.43;;;14.00;99.90;;;;;;4874338;29;20508;-81
2021/07/07 02:32:57;;;;;;;24.15;6.47;;;14.00;99.90;;;;;;4857058;29;20049;-81
2021/07/07 02:35:30;;;;;;;15.07;4.70;;;12.70;99.90;;;;;;4874344;29;20063;-80
2021/07/07 02:37:59;;;;;;;18.60;6.70;;;14.00;99.90;;;;;;4873057;29;20072;-81
2021/07/07 02:40:31;;;;;;;15.13;4.95;;;14.00;99.90;;;;;;4873007;29;20054;-81
2021/07/07 02:43:00;;;;;;;26.00;6.10;;;14.00;99.90;;;;;;4856141;29;20427;-81
2021/07/07 02:45:29;;;;;;;15.27;4.90;;;14.10;99.90;;;;;;4871407;29;20054;-80
2021/07/07 02:48:02;;;;;;;13.55;5.28;;;14.10;99.90;;;;;;4856256;29;20058;-82
2021/07/07 02:50:33;;;;;;;18.50;6.30;;;14.20;99.90;;;;;;4872459;29;20045;-82
2021/07/07 02:53:01;;;;;;;17.58;4.72;;;14.20;99.90;;;;;;4872314;29;20053;-81
2021/07/07 02:55:29;;;;;;;18.83;5.00;;;14.20;99.90;;;;;;4873274;29;20050;-81
2021/07/07 02:57:59;;;;;;;11.07;5.13;;;14.20;99.90;;;;;;4871966;29;20064;-80
2021/07/07 03:00:52;;;;;;;19.70;6.35;;;14.20;99.90;;;;;;4858185;29;20067;-82
2021/07/07 03:03:23;;;;;;;16.27;4.85;;;14.60;99.90;;;;;;4853998;29;20057;-81
2021/07/07 03:06:00;;;;;;;16.30;5.65;;;14.20;99.90;;;;;;4852958;29;20354;-80
2021/07/07 03:08:32;;;;;;;18.20;4.78;;;13.80;99.90;;;;;;4856597;29;20045;-81
2021/07/07 03:11:01;;;;;;;24.52;6.43;;;14.30;99.90;;;;;;4873748;29;20049;-79
2021/07/07 03:13:30;;;;;;;17.98;5.45;;;14.30;99.90;;;;;;4872274;29;20055;-80
2021/07/07 03:15:59;;;;;;;27.05;6.32;;;14.30;99.90;;;;;;4871037;29;20061;-81
2021/07/07 03:18:28;;;;;;;14.13;5.05;;;14.40;99.90;;;;;;4838352;29;20608;-81
2021/07/07 03:20:56;;;;;;;17.50;6.47;;;14.40;99.90;;;;;;4856523;29;20061;-80
2021/07/07 03:23:27;;;;;;;14.50;5.28;;;14.40;99.90;;;;;;4857070;29;20071;-80
2021/07/07 03:25:55;;;;;;;21.52;7.47;;;14.40;99.90;;;;;;4874558;29;20064;-81
2021/07/07 03:28:25;;;;;;;14.93;5.80;;;14.40;99.90;;;;;;4873938;29;20045;-79
2021/07/07 03:30:54;;;;;;;10.85;5.20;;;14.40;99.90;;;;;;4856643;29;20053;-81
2021/07/07 03:33:24;;;;;;;17.73;5.82;;;14.40;99.90;;;;;;4855008;29;20044;-82
2021/07/07 03:35:52;;;;;;;15.43;5.63;;;14.40;99.90;;;;;;4839998;29;20068;-82
2021/07/07 03:38:20;;;;;;;17.17;5.20;;;14.40;99.90;;;;;;4858531;29;20045;-82
2021/07/07 03:40:49;;;;;;;18.02;5.30;;;14.40;99.90;;;;;;4871894;29;20049;-81
2021/07/07 03:43:18;;;;;;;21.02;5.95;;;14.40;99.90;;;;;;4873765;29;20055;-80
2021/07/07 03:45:47;;;;;;;14.32;5.50;;;14.50;99.90;;;;;;4871570;29;20071;-81
2021/07/07 03:48:14;;;;;;;17.50;5.72;;;14.50;99.90;;;;;;4869838;29;20547;-80
2021/07/07 03:50:43;;;;;;;19.25;7.07;;;14.50;99.90;;;;;;4841761;29;20061;-81
2021/07/07 03:53:12;;;;;;;21.85;6.45;;;14.60;99.90;;;;;;4870833;29;20056;-80
2021/07/07 03:55:40;;;;;;;22.52;6.60;;;14.60;99.90;;;;;;4872477;29;20037;-81
2021/07/07 03:58:08;;;;;;;18.33;7.90;;;14.60;99.90;;;;;;4850501;29;20049;-81
2021/07/07 04:00:37;;;;;;;33.20;7.25;;;14.60;99.90;;;;;;4839996;29;20050;-80
2021/07/07 04:03:07;;;;;;;13.27;5.80;;;14.60;99.90;;;;;;4854522;29;20061;-78
2021/07/07 04:05:35;;;;;;;20.52;6.35;;;14.70;99.90;;;;;;4855270;29;20052;-79
2021/07/07 04:08:03;;;;;;;17.70;6.38;;;14.70;99.90;;;;;;4856373;29;20060;-80
2021/07/07 04:10:34;;;;;;;35.17;8.48;;;14.70;99.90;;;;;;4856663;29;20065;-81
2021/07/07 04:13:03;;;;;;;22.25;6.75;;;14.70;99.90;;;;;;4872935;29;20057;-80
2021/07/07 04:15:31;;;;;;;16.60;6.30;;;14.70;99.90;;;;;;4872778;29;20052;-80
2021/07/07 04:17:59;;;;;;;22.17;7.68;;;14.70;99.90;;;;;;4855420;29;20046;-80
2021/07/07 04:20:28;;;;;;;18.77;6.85;;;14.80;99.90;;;;;;4856070;29;20049;-80
2021/07/07 04:22:56;;;;;;;20.02;6.30;;;14.80;99.90;;;;;;4870363;29;20056;-80
2021/07/07 04:25:24;;;;;;;23.67;8.77;;;14.80;99.90;;;;;;4871870;29;20049;-81
2021/07/07 04:27:52;;;;;;;20.00;6.82;;;14.90;99.90;;;;;;4871262;29;20063;-80
2021/07/07 04:30:21;;;;;;;25.50;6.55;;;14.90;99.90;;;;;;4872030;29;20061;-81
2021/07/07 04:32:49;;;;;;;13.52;6.22;;;14.90;99.90;;;;;;4841801;29;20069;-81
2021/07/07 04:35:19;;;;;;;30.33;8.85;;;14.90;99.90;;;;;;4873101;29;20083;-80
2021/07/07 04:37:48;;;;;;;23.63;6.65;;;14.90;99.90;;;;;;4870914;29;20119;-81
2021/07/07 04:40:19;;;;;;;23.35;7.20;;;14.90;99.90;;;;;;4858527;29;20061;-81
2021/07/07 04:42:49;;;;;;;15.93;6.05;;;14.90;99.90;;;;;;4874305;29;20045;-81
2021/07/07 04:45:17;;;;;;;21.38;7.55;;;15.00;99.90;;;;;;4843155;29;20287;-81
2021/07/07 04:47:48;;;;;;;23.83;6.75;;;15.00;99.90;;;;;;4845880;29;20053;-81
2021/07/07 04:50:19;;;;;;;19.08;7.53;;;15.00;99.90;;;;;;4873068;29;20053;-82
2021/07/07 04:52:48;;;;;;;16.50;6.70;;;15.10;99.90;;;;;;4871203;29;20046;-80
2021/07/07 04:55:17;;;;;;;19.52;7.00;;;15.10;99.90;;;;;;4872192;29;20060;-81
2021/07/07 04:57:47;;;;;;;19.27;7.65;;;15.10;99.90;;;;;;4870335;29;20054;-81
2021/07/07 05:00:25;;;;;;;17.45;6.13;;;15.10;99.90;;;;;;4870998;29;20056;-80
2021/07/07 05:02:54;;;;;;;26.88;7.30;;;15.10;99.90;;;;;;4871176;29;20149;-81
2021/07/07 05:05:24;;;;;;;24.65;7.85;;;15.10;99.90;;;;;;4873902;29;20067;-84
2021/07/07 05:07:52;;;;;;;16.70;6.18;;;15.20;99.90;;;;;;4856181;29;20079;-82
2021/07/07 05:10:22;;;;;;;33.20;9.60;;;15.20;99.90;;;;;;4871939;29;20054;-82
2021/07/07 05:12:52;;;;;;;35.20;9.20;;;15.30;99.90;;;;;;4873082;29;20049;-87
2021/07/07 05:15:22;;;;;;;20.27;7.43;;;15.30;99.90;;;;;;4871756;29;20219;-83
2021/07/07 05:17:51;;;;;;;16.77;5.68;;;15.30;99.90;;;;;;4868922;29;20052;-82
2021/07/07 05:20:20;;;;;;;17.35;7.53;;;15.40;99.90;;;;;;4840994;29;20076;-83
2021/07/07 05:22:56;;;;;;;22.55;5.80;;;15.40;99.90;;;;;;4870898;29;20056;-81
2021/07/07 05:25:32;;;;;;;20.92;6.38;;;15.50;99.90;;;;;;4855112;29;20067;-82
2021/07/07 05:28:01;;;;;;;18.80;6.07;;;15.40;99.90;;;;;;4850971;29;20050;-82
2021/07/07 05:30:30;;;;;;;19.17;6.13;;;15.60;99.90;;;;;;4865579;29;20058;-82
2021/07/07 05:33:00;;;;;;;16.98;5.50;;;15.60;99.90;;;;;;4867969;29;20054;-85
2021/07/07 05:35:32;;;;;;;19.98;6.60;;;15.60;99.90;;;;;;4854452;29;20057;-86
2021/07/07 05:38:02;;;;;;;17.10;6.47;;;15.60;99.90;;;;;;4869519;29;20053;-86
2021/07/07 05:40:32;;;;;;;18.25;6.40;;;15.70;99.90;;;;;;4871337;29;20064;-85
2021/07/07 05:43:03;;;;;;;17.00;5.35;;;15.70;99.90;;;;;;4856895;29;20045;-89
2021/07/07 05:45:32;;;;;;;22.42;7.53;;;15.70;99.90;;;;;;4873097;29;20058;-84
2021/07/07 05:48:01;;;;;;;18.38;6.47;;;15.80;99.90;;;;;;4857276;29;20050;-86
2021/07/07 05:50:34;;;;;;;12.43;4.78;;;15.90;99.90;;;;;;4854676;29;20041;-85
2021/07/07 05:53:03;;;;;;;15.63;6.25;;;15.80;99.90;;;;;;4858488;29;20057;-87
2021/07/07 05:55:31;;;;;;;19.77;7.75;;;15.90;99.90;;;;;;4874108;29;20060;-85
2021/07/07 05:58:00;;;;;;;15.48;5.88;;;15.90;99.90;;;;;;4875865;29;20060;-86
2021/07/07 06:00:28;;;;;;;21.55;6.35;;;16.00;99.90;;;;;;4860903;29;20045;-88
2021/07/07 06:03:00;;;;;;;15.68;5.57;;;16.00;99.90;;;;;;4861846;29;20065;-87
2021/07/07 06:05:30;;;;;;;15.98;6.53;;;16.00;99.90;;;;;;4876445;29;20051;-84
2021/07/07 06:07:58;;;;;;;17.90;6.20;;;16.00;99.90;;;;;;4861137;29;20052;-88
2021/07/07 06:10:27;;;;;;;15.90;6.68;;;16.00;99.90;;;;;;4859604;29;20146;-87
2021/07/07 06:12:56;;;;;;;19.13;5.70;;;16.00;99.90;;;;;;4845537;29;20062;-87
2021/07/07 06:15:25;;;;;;;19.67;6.10;;;16.10;99.90;;;;;;4843882;29;20067;-90
2021/07/07 06:17:54;;;;;;;23.10;7.25;;;16.10;99.90;;;;;;4858919;29;20046;-86
2021/07/07 06:20:28;;;;;;;21.73;5.63;;;16.10;99.90;;;;;;4871946;29;20050;-86
2021/07/07 06:23:04;;;;;;;25.33;7.72;;;16.20;99.90;;;;;;4875662;29;20285;-87
2021/07/07 06:25:36;;;;;;;15.93;6.25;;;16.20;99.90;;;;;;4857855;29;20050;-87
2021/07/07 06:28:07;;;;;;;20.08;8.45;;;16.30;99.90;;;;;;4859332;29;20050;-89
2021/07/07 06:30:36;;;;;;;20.52;7.57;;;16.40;99.90;;;;;;4857906;29;20050;-90
2021/07/07 06:33:05;;;;;;;14.77;5.25;;;16.70;99.90;;;;;;4860188;29;20049;-88
2021/07/07 06:35:36;;;;;;;19.95;6.03;;;16.40;99.90;;;;;;4844408;29;20058;-87
2021/07/07 06:38:05;;;;;;;15.90;4.95;;;16.40;99.90;;;;;;4873758;29;20041;-87
2021/07/07 06:40:40;;;;;;;20.80;6.28;;;16.40;99.90;;;;;;4858182;29;20049;-85
2021/07/07 06:43:09;;;;;;;13.23;6.30;;;16.40;99.90;;;;;;4858479;29;20060;-86
2021/07/07 06:45:38;;;;;;;19.15;6.15;;;15.80;99.90;;;;;;4858976;29;20088;-86
2021/07/07 06:48:30;;;;;;;16.17;7.18;;;16.60;99.90;;;;;;4875484;29;20057;-88
2021/07/07 06:51:01;;;;;;;21.80;5.82;;;16.50;99.90;;;;;;4854832;29;20057;-85
2021/07/07 06:53:31;;;;;;;20.55;7.22;;;15.10;99.90;;;;;;4842543;29;20045;-85
2021/07/07 06:56:13;;;;;;;14.27;5.30;;;16.60;99.90;;;;;;4859222;29;20065;-86
2021/07/07 06:58:43;;;;;;;21.85;7.65;;;16.60;99.90;;;;;;4857868;29;20053;-87
2021/07/07 07:01:14;;;;;;;13.95;5.85;;;16.70;99.90;;;;;;4857156;29;20068;-87
2021/07/07 07:03:45;;;;;;;17.45;5.55;;;16.70;99.90;;;;;;4843516;29;20053;-87
2021/07/07 07:06:13;;;;;;;20.38;6.63;;;16.80;99.90;;;;;;4841851;29;20053;-86
2021/07/07 07:08:42;;;;;;;14.35;5.88;;;16.80;99.90;;;;;;4854029;29;20058;-87
2021/07/07 07:11:17;;;;;;;15.10;6.03;;;16.80;99.90;;;;;;4843124;29;20054;-87
2021/07/07 07:13:46;;;;;;;23.98;6.88;;;17.20;99.90;;;;;;4859703;29;20050;-86
2021/07/07 07:16:21;;;;;;;21.08;6.47;;;17.00;99.90;;;;;;4848348;29;20329;-88
2021/07/07 07:18:59;;;;;;;25.13;6.82;;;17.10;99.90;;;;;;4875674;29;20063;-88
2021/07/07 07:21:33;;;;;;;20.92;7.15;;;17.10;99.90;;;;;;4875042;29;20037;-89
2021/07/07 07:24:03;;;;;;;13.80;5.47;;;17.10;99.90;;;;;;4860473;29;20534;-90
2021/07/07 07:26:33;;;;;;;18.98;7.43;;;17.50;99.90;;;;;;4861667;29;20045;-88
2021/07/07 07:29:05;;;;;;;14.32;5.65;;;17.10;99.90;;;;;;4839895;29;20049;-88
2021/07/07 07:31:33;;;;;;;26.48;6.75;;;17.10;99.90;;;;;;4853349;29;20057;-89
2021/07/07 07:34:03;;;;;;;16.48;5.85;;;17.10;99.90;;;;;;4823717;29;20053;-86
2021/07/07 07:36:37;;;;;;;21.45;4.90;;;17.20;99.90;;;;;;4855286;29;20050;-87
2021/07/07 07:39:14;;;;;;;17.15;7.15;;;17.20;99.90;;;;;;4871363;29;20052;-88
2021/07/07 07:41:43;;;;;;;21.67;6.43;;;17.20;99.90;;;;;;4852911;29;20050;-89
2021/07/07 07:44:20;;;;;;;16.58;6.38;;;17.30;99.90;;;;;;4842478;29;20061;-88
2021/07/07 07:46:49;;;;;;;21.55;5.47;;;16.80;99.90;;;;;;4835864;29;20077;-86
2021/07/07 07:49:19;;;;;;;22.73;5.47;;;17.40;99.90;;;;;;4838418;29;20054;-90
2021/07/07 07:51:47;;;;;;;24.48;6.72;;;17.40;99.90;;;;;;4851365;29;20062;-86
2021/07/07 07:54:16;;;;;;;21.25;6.43;;;17.40;99.90;;;;;;4855827;29;20046;-87
2021/07/07 07:56:44;;;;;;;17.58;6.47;;;17.40;99.90;;;;;;4872134;29;20061;-86
2021/07/07 07:59:13;;;;;;;13.77;5.05;;;17.40;99.90;;;;;;4841287;29;20057;-86
2021/07/07 08:01:45;;;;;;;16.27;6.45;;;17.40;99.90;;;;;;4870047;29;20053;-88
2021/07/07 08:04:13;;;;;;;19.05;6.45;;;17.50;99.90;;;;;;4857046;29;20057;-87
2021/07/07 08:06:41;;;;;;;21.50;5.40;;;17.50;99.90;;;;;;4871742;29;20053;-86
2021/07/07 08:09:09;;;;;;;14.27;6.95;;;17.60;99.90;;;;;;4872773;29;20046;-88
2021/07/07 08:11:37;;;;;;;22.33;6.63;;;17.70;99.90;;;;;;4857396;29;20057;-89
2021/07/07 08:14:09;;;;;;;18.63;5.93;;;17.70;99.90;;;;;;4857890;29;20078;-88
2021/07/07 08:16:40;;;;;;;15.00;5.25;;;17.80;99.90;;;;;;4872063;29;20393;-87
2021/07/07 08:19:08;;;;;;;16.40;5.75;;;17.90;99.90;;;;;;4857741;29;20055;-86
2021/07/07 08:21:36;;;;;;;11.43;4.78;;;18.00;99.90;;;;;;4843342;29;20061;-86
2021/07/07 08:24:08;;;;;;;16.85;5.03;;;18.10;99.90;;;;;;4852606;29;20064;-88
2021/07/07 08:26:37;;;;;;;20.40;5.07;;;18.20;99.90;;;;;;4842475;29;20060;-88
2021/07/07 08:29:05;;;;;;;14.43;5.28;;;18.30;99.90;;;;;;4848345;29;20050;-88
2021/07/07 08:31:34;;;;;;;17.15;6.28;;;19.50;99.90;;;;;;4868074;29;20049;-86
2021/07/07 08:34:02;;;;;;;16.48;4.78;;;18.50;99.90;;;;;;4872653;29;20050;-87
2021/07/07 08:36:31;;;;;;;16.30;5.50;;;18.60;99.90;;;;;;4854391;29;20079;-91
2021/07/07 08:39:12;;;;;;;13.63;4.53;;;18.70;99.90;;;;;;4840322;29;20060;-88
2021/07/07 08:41:46;;;;;;;17.15;6.57;;;18.70;99.90;;;;;;4830995;29;20064;-86
2021/07/07 08:44:14;;;;;;;;;;;18.70;99.90;;;;;;4842204;29;20057;-88
2021/07/07 08:46:43;;;;;;;12.73;4.32;;;18.60;99.90;;;;;;4872574;29;19928;-87
2021/07/07 08:49:18;;;;;;;8.52;3.80;;;18.60;99.90;;;;;;4871599;29;20064;-86
2021/07/07 08:51:49;;;;;;;17.13;4.82;;;18.50;99.90;;;;;;4871639;29;20064;-87
2021/07/07 08:54:19;;;;;;;18.05;4.70;;;18.60;99.90;;;;;;4872718;29;20038;-86
2021/07/07 08:56:49;;;;;;;19.10;5.15;;;18.70;99.90;;;;;;4873528;29;20055;-87
2021/07/07 08:59:21;;;;;;;13.68;5.53;;;18.70;99.90;;;;;;4852188;29;20057;-87
2021/07/07 09:02:11;;;;;;;10.80;4.47;;;18.80;99.90;;;;;;4842076;29;20056;-85
2021/07/07 09:04:46;;;;;;;15.30;4.40;;;18.90;99.90;;;;;;4858980;29;20066;-87
2021/07/07 09:07:41;;;;;;;11.23;4.55;;;18.90;99.90;;;;;;4855042;29;20058;-86
2021/07/07 09:10:25;;;;;;;16.27;4.03;;;18.90;99.90;;;;;;4826645;29;20062;-88
2021/07/07 09:13:15;;;;;;;20.15;5.72;;;18.80;99.90;;;;;;4837475;29;20057;-87
2021/07/07 09:15:49;;;;;;;15.43;5.75;;;18.70;99.90;;;;;;4871282;29;20060;-89
2021/07/07 09:18:33;;;;;;;15.32;4.47;;;18.70;99.90;;;;;;4862004;29;20067;-88
2021/07/07 09:21:03;;;;;;;13.73;5.53;;;18.70;99.90;;;;;;4878883;29;20060;-87
2021/07/07 09:23:34;;;;;;;17.70;5.22;;;18.70;99.90;;;;;;4848097;29;20065;-86
2021/07/07 09:26:05;;;;;;;18.23;5.13;;;18.60;99.90;;;;;;4847147;29;20047;-88
2021/07/07 09:28:39;;;;;;;9.40;5.38;;;18.60;99.90;;;;;;4878337;29;20058;-87
2021/07/07 09:31:29;;;;;;;13.07;5.75;;;18.60;99.90;;;;;;4848056;29;20053;-88
2021/07/07 09:34:19;;;;;;;19.10;4.95;;;20.10;99.90;;;;;;4861795;29;20068;-89
2021/07/07 09:36:51;;;;;;;11.35;4.55;;;18.80;99.90;;;;;;4845110;29;20067;-86
2021/07/07 09:39:20;;;;;;;9.38;4.65;;;18.90;99.90;;;;;;4842839;29;20060;-86
2021/07/07 09:41:51;;;;;;;14.20;4.18;;;19.00;99.90;;;;;;4847374;29;20457;-87
2021/07/07 09:44:21;;;;;;;11.07;3.78;;;19.20;99.90;;;;;;4852265;29;20072;-88
2021/07/07 09:46:55;;;;;;;8.57;4.93;;;19.10;99.90;;;;;;4852962;29;20068;-86
2021/07/07 09:49:26;;;;;;;8.75;3.33;;;19.40;99.90;;;;;;4840305;29;20053;-90
2021/07/07 09:52:01;;;;;;;15.93;4.80;;;19.40;99.90;;;;;;4857851;29;20064;-88
2021/07/07 09:54:31;;;;;;;10.93;4.35;;;19.50;99.90;;;;;;4838677;29;20057;-87
2021/07/07 09:57:04;;;;;;;11.10;3.63;;;19.60;99.90;;;;;;4844870;29;20056;-87
2021/07/07 09:59:36;;;;;;;11.88;4.43;;;19.70;99.90;;;;;;4869953;29;20330;-89
2021/07/07 10:02:12;;;;;;;12.98;5.03;;;19.70;99.90;;;;;;4845909;29;20053;-89
2021/07/07 10:04:43;;;;;;;12.23;4.55;;;19.80;99.90;;;;;;4856030;29;20235;-89
2021/07/07 10:07:18;;;;;;;25.10;5.75;;;20.10;99.90;;;;;;4864060;29;20054;-90
2021/07/07 10:09:51;;;;;;;19.60;5.70;;;19.70;99.90;;;;;;4858602;29;20060;-87
2021/07/07 10:12:35;;;;;;;12.43;4.60;;;19.70;99.90;;;;;;4832747;29;20061;-89
2021/07/07 10:15:18;;;;;;;16.52;4.95;;;19.80;99.90;;;;;;4867189;29;20220;-89
2021/07/07 10:17:54;;;;;;;14.80;4.00;;;19.90;99.90;;;;;;4842987;29;20053;-86
2021/07/07 10:20:31;;;;;;;24.50;5.65;;;20.10;99.90;;;;;;4856428;29;20054;-90
2021/07/07 10:23:08;;;;;;;;;;;20.10;99.90;;;;;;4855518;29;20054;-87
2021/07/07 10:26:02;;;;;;;12.27;5.10;;;20.00;99.90;;;;;;4853581;29;19943;-88
2021/07/07 10:28:33;;;;;;;16.08;4.88;;;19.80;99.90;;;;;;4830268;29;20062;-88
2021/07/07 10:31:09;;;;;;;16.95;5.43;;;19.80;99.90;;;;;;4842677;29;20046;-89
2021/07/07 10:33:42;;;;;;;20.55;5.05;;;19.80;99.90;;;;;;4868204;24;20053;-87
2021/07/07 10:36:30;;;;;;;15.77;5.38;;;19.80;99.90;;;;;;4862296;29;20049;-89
2021/07/07 10:39:05;;;;;;;18.17;5.78;;;19.80;99.90;;;;;;4872545;29;20083;-88
2021/07/07 10:41:59;;;;;;;13.13;4.95;;;19.70;99.90;;;;;;4864174;29;20045;-87
2021/07/07 10:44:35;;;;;;;13.43;4.47;;;19.70;99.90;;;;;;4837801;29;20482;-89
2021/07/07 10:47:16;;;;;;;12.02;4.15;;;19.70;99.90;;;;;;4829252;29;20253;-88
2021/07/07 10:49:54;;;;;;;13.50;4.30;;;19.70;99.90;;;;;;4836977;29;20410;-89
2021/07/07 10:52:33;;;;;;;12.80;4.45;;;19.70;99.90;;;;;;4854614;29;20050;-88
2021/07/07 10:55:05;;;;;;;13.00;3.92;;;19.70;99.90;;;;;;4850168;29;20049;-88
2021/07/07 10:57:35;;;;;;;10.02;4.90;;;19.60;99.90;;;;;;4849520;29;20736;-89
2021/07/07 11:00:09;;;;;;;15.05;4.63;;;19.60;99.90;;;;;;4832980;29;20046;-88
2021/07/07 11:02:39;;;;;;;16.75;4.47;;;19.60;99.90;;;;;;4839951;29;20502;-88
2021/07/07 11:05:24;;;;;;;8.52;3.65;;;19.70;99.90;;;;;;4856662;29;20057;-89
2021/07/07 11:07:51;;;;;;;12.73;4.03;;;19.80;99.90;;;;;;4852660;29;20060;-87
2021/07/07 11:10:22;;;;;;;18.05;4.75;;;19.90;99.90;;;;;;4836820;29;20683;-88
2021/07/07 11:12:54;;;;;;;10.65;4.93;;;20.00;99.90;;;;;;4841416;29;20049;-88
2021/07/07 11:15:25;;;;;;;17.52;4.68;;;20.00;99.90;;;;;;4840665;29;20054;-88
2021/07/07 11:17:56;;;;;;;8.60;4.60;;;20.10;99.90;;;;;;4832866;29;20045;-88
2021/07/07 11:20:34;;;;;;;10.23;4.80;;;20.30;99.90;;;;;;4824873;29;20069;-88
2021/07/07 11:23:11;;;;;;;17.23;4.57;;;20.40;99.90;;;;;;4838376;29;20069;-89
2021/07/07 11:25:40;;;;;;;10.57;4.75;;;20.50;99.90;;;;;;4842174;29;20073;-86
2021/07/07 11:28:11;;;;;;;13.35;4.82;;;20.50;99.90;;;;;;4862749;29;20053;-88
2021/07/07 11:30:46;;;;;;;12.20;4.35;;;20.30;99.90;;;;;;4852222;29;20057;-87
2021/07/07 11:33:14;;;;;;;10.70;3.83;;;20.30;99.90;;;;;;4835064;29;20058;-86
2021/07/07 11:35:43;;;;;;;16.65;5.47;;;20.40;99.90;;;;;;4861805;29;20050;-89
2021/07/07 11:38:14;;;;;;;12.25;4.70;;;20.50;99.90;;;;;;4849035;29;20394;-89
2021/07/07 11:40:53;;;;;;;;;;;20.80;99.90;;;;;;4858237;29;20054;-89
2021/07/07 11:43:25;;;;;;;14.48;4.35;;;20.90;99.90;;;;;;4852707;29;20414;-89
2021/07/07 11:46:06;;;;;;;12.88;5.32;;;21.10;99.90;;;;;;4869290;29;20046;-89
2021/07/07 11:48:42;;;;;;;12.75;4.55;;;21.30;99.90;;;;;;4833376;29;20072;-87
2021/07/07 11:51:17;;;;;;;12.32;3.88;;;21.40;99.90;;;;;;4844182;29;20083;-89
2021/07/07 11:53:50;;;;;;;12.35;3.78;;;21.40;99.90;;;;;;4837778;29;20058;-89
2021/07/07 11:56:22;;;;;;;16.20;3.83;;;21.30;99.90;;;;;;4839622;29;20061;-89
2021/07/07 11:58:51;;;;;;;10.63;3.80;;;21.20;99.90;;;;;;4839760;29;20843;-89
2021/07/07 12:01:21;;;;;;;12.20;3.75;;;21.10;99.90;;;;;;4855993;29;20050;-88
2021/07/07 12:04:12;;;;;;;11.65;5.75;;;20.90;99.90;;;;;;4857001;29;20397;-89
2021/07/07 12:06:45;;;;;;;14.43;4.70;;;20.80;99.90;;;;;;4830595;29;20069;-89
2021/07/07 12:09:17;;;;;;;12.82;4.10;;;20.70;99.90;;;;;;4844210;29;20058;-88
2021/07/07 12:12:00;;;;;;;10.80;3.80;;;20.80;99.90;;;;;;4838354;29;20724;-89
2021/07/07 12:14:36;;;;;;;10.60;4.00;;;20.80;99.90;;;;;;4823097;29;20054;-88
2021/07/07 12:17:04;;;;;;;12.80;5.75;;;20.90;99.90;;;;;;4818940;29;20049;-89
2021/07/07 12:19:33;;;;;;;7.18;3.70;;;20.90;99.90;;;;;;4856903;29;20061;-88
2021/07/07 12:22:06;;;;;;;15.63;4.90;;;20.90;99.90;;;;;;4842041;29;20060;-89
2021/07/07 12:24:42;;;;;;;9.80;4.25;;;20.80;99.90;;;;;;4852775;29;20056;-89
2021/07/07 12:27:17;;;;;;;13.65;5.10;;;20.60;99.90;;;;;;4856725;29;20048;-89
2021/07/07 12:29:51;;;;;;;10.15;5.18;;;20.50;99.90;;;;;;4839231;29;20069;-89
2021/07/07 12:32:25;;;;;;;9.32;4.22;;;20.40;99.90;;;;;;4838985;29;20046;-89
2021/07/07 12:34:56;;;;;;;9.02;3.40;;;20.40;99.90;;;;;;4840188;29;20066;-87
2021/07/07 12:37:25;;;;;;;7.30;4.20;;;20.30;99.90;;;;;;4848675;29;20050;-89
2021/07/07 12:39:59;;;;;;;11.07;4.15;;;20.30;99.90;;;;;;4846630;29;20053;-88
2021/07/07 12:42:35;;;;;;;16.40;4.22;;;20.20;99.90;;;;;;4824423;29;20049;-89
2021/07/07 12:45:12;;;;;;;11.88;3.63;;;20.30;99.90;;;;;;4846898;29;20065;-89
2021/07/07 12:47:41;;;;;;;13.98;5.20;;;20.30;99.90;;;;;;4836034;29;20058;-88
2021/07/07 12:50:22;;;;;;;8.15;4.53;;;20.50;99.90;;;;;;4818950;29;20064;-89
2021/07/07 12:52:51;;;;;;;10.23;4.00;;;20.70;99.90;;;;;;4808327;29;20080;-89
2021/07/07 12:55:27;;;;;;;15.63;4.95;;;21.00;99.90;;;;;;4850087;29;20069;-90
2021/07/07 12:58:05;;;;;;;8.20;3.88;;;21.40;99.90;;;;;;4846974;29;20716;-89
2021/07/07 13:00:34;;;;;;;11.00;3.60;;;21.60;99.90;;;;;;4848096;29;20053;-89